Skip Navigation Links
NOAA logo - Click to go to the NOAA homepage
NOAA's National Weather Service
Alaska Aviation Weather Unit
  NWS logo - Click to go to the NWS homepage
Left Navbar Graphic     00 AKDT = 08 GMT

   
NOAA is celebrating 200 years of science, service, and stewardship. Visit the NOAA 200th celebration Web site to learn more.
USA.gov is the U.S. Government's official Web portal to all Federal, state and local government Web resources and services.
Facebook
NWS on Facebook

AAWU Home :: Display TAF Add Bookmark
TAF PASN 230523Z 2306/2406 07006KT P6SM BKN120
     FM232100 08014KT P6SM SKC=
METAR PASN 230253Z AUTO 07011KT 10SM CLR M03/M08 A3004 RMK AO2 SLP175
     T10281078 50001 TSNO $=

METAR PASN 230353Z AUTO 07008KT 10SM CLR M03/M08 A3005 RMK AO2 SLP177
     T10281078 TSNO $=

METAR PASN 230453Z AUTO 06008KT 8SM CLR M03/M08 A3005 RMK AO2 SLP178
     T10331083 TSNO $=

METAR PASN 230553Z AUTO 07009KT 10SM CLR M04/M08 A3005 RMK AO2
 SLP178 T10441083 11011 21044 51003 TSNO $=

METAR PASN 230653Z AUTO 07009KT 10SM CLR M04/M08 A3007 RMK AO2 SLP182
     T10441078 TSNO $=

METAR PASN 230753Z AUTO 08008KT 10SM CLR M04/M07 A3008 RMK AO2 SLP186
     T10391072 TSNO $=


NOAA's National Weather Service
Alaska Aviation Weather Unit
6930 Sand Lake Road
Anchorage, AK 99502-1845
Disclaimer
Credits
Glossary
Privacy Policy
About Us
Career Opportunities
Contact AAWU Internet Services Site last modified: April, 17th 2012